Latest Weather Observations for Jandakot

IDW60801

Issued at 5:13 am WST Wednesday 8 December 2021 (issued every 10 minutes, with the page automatically refreshed every 10 minutes)

About weather observations | Map of weather stations | Latest weather observations for WA | Other Formats
Station Details ID: 009172 Name: JANDAKOT AERO Lat: -32.10 Lon: 115.88 Height: 30.0 m
Data from the previous 72 hours. | See also: Recent months at Jandakot
Date/Time
WST
Temp
°C
App
Temp
°C
Dew
Point
°C
Rel
Hum
%
Delta-T
°C
Wind Press
QNH
hPa
Press
MSL
hPa
Rain since
9am
mm
Dir  Spd
km/h
Gust
km/h
Spd
kts
Gust
kts
08/05:00am 22.2 18.5 10.0 46 6.6 E 20 28 11 15 1010.4 1010.3 0.0
08/04:30am 22.3 18.8 10.1 46 6.6 E 19 26 10 14 1010.3 1010.2 0.0
08/04:00am 22.6 19.1 10.1 45 6.8 ENE 19 26 10 14 1010.5 1010.4 0.0
08/03:30am 22.3 18.6 10.1 46 6.6 E 20 28 11 15 1010.3 1010.2 0.0
08/03:00am 22.8 18.8 10.3 45 6.9 E 22 32 12 17 1010.0 1009.9 0.0
08/02:30am 23.1 18.6 10.2 44 7.1 ESE 24 30 13 16 1009.9 1009.8 0.0
08/02:00am 23.9 19.4 9.9 41 7.7 E 24 35 13 19 1009.8 1009.7 0.0
08/01:30am 24.8 19.9 9.9 39 8.2 E 26 39 14 21 1009.9 1009.8 0.0
08/01:00am 25.3 20.7 9.6 37 8.6 ENE 24 39 13 21 1010.1 1010.0 0.0
08/12:30am 25.8 20.4 9.6 36 8.9 E 28 35 15 19 1010.2 1010.1 0.0
08/12:28am 25.9 20.4 9.3 35 9.1 E 28 46 15 25 1010.2 1010.1 0.0
08/12:00am 26.6 21.4 9.0 33 9.6 E 26 44 14 24 1010.0 1009.9 0.0
 
Date/Time
WST
Temp
°C
App
Temp
°C
Dew
Point
°C
Rel
Hum
%
Delta-T
°C
Wind Press
QNH
hPa
Press
MSL
hPa
Rain since
9am
mm
Dir  Spd
km/h
Gust
km/h
Spd
kts
Gust
kts
07/11:30pm 27.4 21.2 9.3 32 10.0 E 32 46 17 25 1009.4 1009.3 0.0
07/11:00pm 28.9 23.7 10.1 31 10.6 E 28 46 15 25 1009.3 1009.2 0.0
07/10:59pm 29.1 23.9 10.3 31 10.6 E 28 46 15 25 1009.4 1009.3 0.0
07/10:30pm 29.3 24.5 10.4 31 10.7 E 26 37 14 20 1009.7 1009.6 0.0
07/10:00pm 29.7 24.3 10.8 31 10.8 E 30 46 16 25 1009.7 1009.6 0.0
07/09:30pm 29.9 24.5 10.9 31 10.9 ESE 30 41 16 22 1009.2 1009.1 0.0
07/09:00pm 30.1 25.4 10.6 30 11.2 ESE 26 33 14 18 1009.1 1009.0 0.0
07/08:30pm 30.6 26.0 11.1 30 11.3 SE 26 35 14 19 1009.3 1009.2 0.0
07/08:00pm 31.1 27.8 11.5 30 11.4 SE 20 30 11 16 1009.6 1009.5 0.0
07/07:30pm 30.8 28.9 11.7 31 11.1 SE 13 20 7 11 1009.6 1009.5 0.0
07/07:00pm 32.0 28.7 11.7 28 11.9 ESE 20 30 11 16 1009.4 1009.3 0.0
07/06:30pm 33.1 29.0 11.6 27 12.6 ESE 24 32 13 17 1009.1 1009.0 0.0
07/06:00pm 33.7 28.9 11.5 26 13.1 ESE 28 41 15 22 1008.9 1008.8 0.0
07/05:30pm 34.0 29.4 12.4 27 12.9 E 28 43 15 23 1008.9 1008.8 0.0
07/05:00pm 34.3 29.6 12.0 25 13.3 E 28 37 15 20 1008.8 1008.7 0.0
07/04:30pm 34.5 29.9 12.2 26 13.3 ESE 28 37 15 20 1009.0 1008.9 0.0
07/04:00pm 34.3 29.2 12.0 25 13.3 ESE 30 41 16 22 1009.1 1009.0 0.0
07/03:30pm 34.2 29.7 12.5 27 13.0 ESE 28 41 15 22 1009.3 1009.2 0.0
07/03:00pm 33.7 28.7 12.1 27 12.9 E 30 43 16 23 1009.9 1009.8 0.0
07/02:30pm 33.4 28.5 12.4 28 12.5 E 30 39 16 21 1010.3 1010.2 0.0
07/02:00pm 33.0 28.0 12.1 28 12.4 E 30 41 16 22 1010.7 1010.6 0.0
07/01:30pm 32.8 28.2 12.4 29 12.1 E 28 41 15 22 1010.9 1010.8 0.0
07/01:00pm 31.2 25.8 12.1 31 11.2 ESE 32 43 17 23 1011.5 1011.4 0.0
07/12:30pm 30.2 24.7 11.7 32 10.8 E 32 44 17 24 1011.8 1011.7 0.0
07/12:00pm 30.3 24.2 11.8 32 10.8 ESE 35 46 19 25 1012.1 1012.0 0.0
07/11:30am 28.5 22.7 11.6 35 9.7 E 33 50 18 27 1012.7 1012.6 0.0
07/11:23am 28.4 22.8 11.5 35 9.7 E 32 50 17 27 1012.7 1012.6 0.0
07/11:00am 27.4 21.8 11.4 37 9.2 E 32 41 17 22 1013.1 1013.0 0.0
07/10:30am 26.2 20.5 11.2 39 8.5 E 32 44 17 24 1013.3 1013.2 0.0
07/10:00am 25.2 19.4 11.4 42 7.8 E 33 44 18 24 1013.6 1013.5 0.0
07/09:30am 24.3 18.6 11.3 44 7.3 E 32 44 17 24 1013.9 1013.8 0.0
07/09:00am 22.9 16.9 10.7 46 6.7 E 33 46 18 25 1014.2 1014.1 0.0
07/08:30am 22.1 16.1 10.9 49 6.2 E 33 43 18 23 1014.2 1014.1 0.0
07/08:00am 20.8 14.7 10.3 51 5.7 E 33 48 18 26 1014.3 1014.2 0.0
07/07:39am 19.9 14.6 10.0 53 5.3 E 28 46 15 25 1014.4 1014.3 0.0
07/07:30am 19.4 13.3 10.4 56 4.9 E 33 50 18 27 1014.3 1014.2 0.0
07/07:00am 18.5 14.0 10.1 58 4.5 E 24 35 13 19 1014.3 1014.2 0.0
07/06:30am 17.0 10.9 9.7 62 3.8 E 32 44 17 24 1014.4 1014.3 0.0
07/06:00am 16.2 9.4 9.4 64 3.5 E 35 54 19 29 1014.3 1014.2 0.0
07/05:57am 16.2 9.4 9.4 64 3.5 ESE 35 54 19 29 1014.3 1014.2 0.0
07/05:30am 15.7 8.6 9.4 66 3.3 E 37 48 20 26 1014.0 1013.9 0.0
07/05:00am 15.4 9.0 9.3 67 3.1 E 33 44 18 24 1014.1 1014.0 0.0
07/04:54am 15.4 9.0 9.3 67 3.1 E 33 52 18 28 1014.1 1014.0 0.0
07/04:30am 15.5 8.7 9.4 67 3.2 E 35 48 19 26 1013.8 1013.7 0.0
07/04:05am 15.6 9.4 9.3 66 3.3 E 32 50 17 27 1014.1 1014.0 0.0
07/04:00am 15.5 9.7 9.4 67 3.2 E 30 44 16 24 1014.0 1013.9 0.0
07/03:30am 15.5 9.7 9.6 68 3.1 ESE 30 48 16 26 1014.2 1014.1 0.0
07/03:13am 15.5 9.7 9.6 68 3.1 ESE 30 48 16 26 1014.0 1013.9 0.0
07/03:00am 15.4 11.1 9.5 68 3.1 E 22 35 12 19 1014.2 1014.1 0.0
07/02:34am 15.5 10.1 9.6 68 3.1 E 28 46 15 25 1014.2 1014.1 0.0
07/02:30am 15.4 10.8 9.5 68 3.1 E 24 43 13 23 1014.2 1014.1 0.0
07/02:00am 15.5 9.1 9.4 67 3.2 ESE 33 54 18 29 1013.9 1013.8 0.0
07/01:53am 15.7 8.9 9.4 66 3.3 ESE 35 54 19 29 1013.7 1013.6 0.0
07/01:30am 15.8 9.0 9.2 65 3.4 ESE 35 48 19 26 1013.7 1013.6 0.0
07/01:00am 16.1 8.6 9.3 64 3.5 ESE 39 54 21 29 1013.7 1013.6 0.0
07/12:34am 16.6 9.5 9.5 63 3.7 ESE 37 56 20 30 1013.6 1013.5 0.0
07/12:30am 16.5 9.4 9.7 64 3.6 ESE 37 50 20 27 1013.6 1013.5 0.0
07/12:00am 16.9 9.5 9.8 63 3.7 ESE 39 56 21 30 1013.8 1013.7 0.0
 
Date/Time
WST
Temp
°C
App
Temp
°C
Dew
Point
°C
Rel
Hum
%
Delta-T
°C
Wind Press
QNH
hPa
Press
MSL
hPa
Rain since
9am
mm
Dir  Spd
km/h
Gust
km/h
Spd
kts
Gust
kts
06/11:55pm 17.0 9.9 9.7 62 3.8 ESE 37 56 20 30 1013.9 1013.8 0.0
06/11:30pm 17.6 11.3 9.8 60 4.1 ESE 33 46 18 25 1014.2 1014.1 0.0
06/11:02pm 18.7 11.3 9.8 56 4.7 ESE 39 57 21 31 1014.0 1013.9 0.0
06/11:00pm 18.8 11.8 9.8 56 4.8 ESE 37 52 20 28 1013.7 1013.6 0.0
06/10:30pm 20.2 13.5 9.7 51 5.6 ESE 35 54 19 29 1013.8 1013.7 0.0
06/10:26pm 20.4 14.3 9.9 51 5.6 ESE 32 50 17 27 1013.6 1013.5 0.0
06/10:00pm 21.4 16.1 9.9 48 6.2 ESE 28 39 15 21 1013.6 1013.5 0.0
06/09:30pm 22.4 16.9 10.5 47 6.5 ESE 30 37 16 20 1013.4 1013.3 0.0
06/09:00pm 23.4 17.0 10.8 45 7.0 ESE 35 48 19 26 1012.9 1012.8 0.0
06/08:33pm 24.3 18.9 10.9 43 7.5 ESE 30 48 16 26 1012.7 1012.6 0.0
06/08:30pm 24.3 19.3 10.9 43 7.5 ESE 28 41 15 22 1012.8 1012.7 0.0
06/08:00pm 25.4 19.7 11.2 41 8.0 SE 32 48 17 26 1012.6 1012.5 0.0
06/07:30pm 26.6 21.6 11.1 38 8.8 SE 28 39 15 21 1012.1 1012.0 0.0
06/07:00pm 28.2 22.3 10.4 33 10.1 SE 32 46 17 25 1012.1 1012.0 0.0
06/06:30pm 29.5 24.4 10.6 31 10.8 SE 28 35 15 19 1011.7 1011.6 0.0
06/06:00pm 30.5 24.6 10.5 29 11.4 SE 32 44 17 24 1011.4 1011.3 0.0
06/05:30pm 31.9 25.8 8.2 23 13.1 ESE 30 39 16 21 1011.1 1011.0 0.0
06/05:00pm 32.6 26.5 8.1 22 13.6 SE 30 41 16 22 1011.1 1011.0 0.0
06/04:30pm 32.7 27.0 8.2 22 13.6 SE 28 35 15 19 1011.1 1011.0 0.0
06/04:00pm 33.1 27.7 7.9 21 14.0 SE 26 37 14 20 1011.4 1011.3 0.0
06/03:30pm 33.2 28.2 7.9 21 14.1 SE 24 33 13 18 1011.7 1011.6 0.0
06/03:00pm 32.2 27.7 8.4 23 13.3 E 22 32 12 17 1012.1 1012.0 0.0
06/02:30pm 32.0 27.2 8.9 24 13.0 ESE 24 43 13 23 1012.5 1012.4 0.0
06/02:00pm 32.2 28.8 9.1 24 13.0 ESE 17 30 9 16 1012.6 1012.5 0.0
06/01:30pm 31.2 27.1 8.8 25 12.5 SE 20 32 11 17 1013.0 1012.9 0.0
06/01:00pm 29.6 25.7 8.6 27 11.6 SE 19 30 10 16 1013.5 1013.4 0.0
06/12:30pm 29.2 25.1 8.8 28 11.3 ESE 20 39 11 21 1014.0 1013.9 0.0
06/12:00pm 29.1 25.4 9.3 29 11.0 SE 19 30 10 16 1014.3 1014.2 0.0
06/11:30am 28.9 25.0 9.6 30 10.8 ESE 20 28 11 15 1014.8 1014.7 0.0
06/11:00am 26.7 23.2 8.6 32 9.8 E 17 28 9 15 1015.0 1014.9 0.0
06/10:30am 26.6 21.7 8.6 32 9.8 ESE 24 33 13 18 1015.3 1015.2 0.0
06/10:00am 25.9 21.6 9.3 35 9.1 ESE 22 32 12 17 1015.7 1015.6 0.0
06/09:30am 24.3 18.9 9.5 39 8.1 E 28 39 15 21 1016.0 1015.9 0.0
06/09:00am 23.6 17.7 9.2 40 7.8 ESE 30 35 16 19 1016.4 1016.3 0.0
06/08:30am 22.4 16.8 8.9 42 7.2 ESE 28 37 15 20 1016.4 1016.3 0.0
06/08:00am 21.3 14.9 8.6 44 6.7 ESE 32 46 17 25 1016.3 1016.2 0.0
06/07:30am 20.3 15.3 9.5 50 5.8 ESE 26 35 14 19 1016.5 1016.4 0.0
06/07:00am 18.8 14.3 10.1 57 4.6 ESE 24 33 13 18 1016.5 1016.4 0.0
06/06:30am 17.7 14.7 10.6 63 3.8 ESE 17 26 9 14 1016.7 1016.6 0.0
06/06:00am 16.8 13.4 10.6 67 3.3 SE 19 24 10 13 1016.5 1016.4 0.0
06/05:30am 16.0 13.0 10.5 70 2.9 SE 17 22 9 12 1016.3 1016.2 0.0
06/05:00am 15.9 12.9 10.7 71 2.8 SE 17 26 9 14 1016.0 1015.9 0.0
06/04:30am 16.3 11.6 10.8 70 2.9 SE 26 37 14 20 1015.7 1015.6 0.0
06/04:00am 16.9 11.5 11.0 68 3.2 ESE 30 41 16 22 1015.4 1015.3 0.0
06/03:30am 17.4 12.5 11.2 67 3.4 ESE 28 37 15 20 1015.2 1015.1 0.0
06/03:00am 18.0 14.6 11.1 64 3.7 ESE 20 30 11 16 1015.0 1014.9 0.0
06/02:30am 18.6 15.2 11.2 62 4.0 ESE 20 30 11 16 1014.7 1014.6 0.0
06/02:00am 19.2 15.8 11.3 60 4.3 SE 20 28 11 15 1014.5 1014.4 0.0
06/01:30am 19.6 16.3 10.9 57 4.7 SE 19 26 10 14 1014.5 1014.4 0.0
06/01:00am 20.6 17.0 10.4 52 5.5 SE 20 26 11 14 1014.5 1014.4 0.0
06/12:30am 21.5 17.5 10.3 49 6.1 SE 22 32 12 17 1014.4 1014.3 0.0
06/12:00am 22.1 18.3 11.2 50 6.0 SE 22 32 12 17 1014.4 1014.3 0.0
 
Date/Time
WST
Temp
°C
App
Temp
°C
Dew
Point
°C
Rel
Hum
%
Delta-T
°C
Wind Press
QNH
hPa
Press
MSL
hPa
Rain since
9am
mm
Dir  Spd
km/h
Gust
km/h
Spd
kts
Gust
kts
05/11:30pm 22.7 19.7 12.6 53 5.8 SSE 20 26 11 14 1014.3 1014.2 0.0
05/11:00pm 23.2 20.5 12.8 52 6.0 SE 19 30 10 16 1014.2 1014.1 0.0
05/10:30pm 23.5 20.2 12.8 51 6.2 SSE 22 30 12 16 1014.0 1013.9 0.0
05/10:00pm 22.5 20.3 13.3 56 5.3 SSE 17 20 9 11 1014.1 1014.0 0.0
05/09:30pm 23.0 20.5 13.5 55 5.5 S 19 26 10 14 1013.7 1013.6 0.0
05/09:00pm 23.5 20.2 13.9 55 5.6 S 24 30 13 16 1013.3 1013.2 0.0
05/08:30pm 23.6 21.3 14.6 57 5.3 SSW 20 28 11 15 1013.2 1013.1 0.0
05/08:00pm 23.7 21.6 14.7 57 5.3 SSW 19 26 10 14 1013.1 1013.0 0.0
05/07:30pm 23.9 21.9 14.9 57 5.4 SSW 19 26 10 14 1013.1 1013.0 0.0
05/07:00pm 24.4 21.0 14.8 55 5.7 SSW 26 35 14 19 1013.0 1012.9 0.0
05/06:30pm 25.8 21.9 14.3 49 6.8 SSW 28 39 15 21 1012.8 1012.7 0.0
05/06:00pm 27.2 22.8 12.8 41 8.4 SSW 28 39 15 21 1012.7 1012.6 0.0
05/05:30pm 27.7 22.3 12.1 38 9.0 SSW 32 44 17 24 1012.5 1012.4 0.0
05/05:00pm 28.0 21.8 11.5 35 9.5 SW 35 46 19 25 1012.3 1012.2 0.0
05/04:30pm 29.4 23.2 10.0 30 10.9 SW 33 41 18 22 1012.2 1012.1 0.0
05/04:00pm 30.4 25.1 11.4 31 11.0 SW 30 39 16 21 1012.3 1012.2 0.0
05/03:30pm 30.4 24.7 11.9 32 10.8 SW 33 43 18 23 1012.4 1012.3 0.0
05/03:00pm 31.3 25.0 11.1 29 11.7 SW 35 46 19 25 1012.5 1012.4 0.0
05/02:30pm 31.6 25.8 10.9 28 12.0 SW 32 43 17 23 1012.7 1012.6 0.0
05/02:00pm 31.3 25.2 11.7 30 11.5 SW 35 44 19 24 1012.7 1012.6 0.0
05/01:30pm 31.5 26.7 12.8 32 11.1 SW 30 41 16 22 1013.1 1013.0 0.0
05/01:00pm 31.0 26.9 15.0 38 9.8 WSW 30 39 16 21 1013.1 1013.0 0.0
05/12:30pm 31.0 28.0 15.8 39 9.5 WSW 26 32 14 17 1013.3 1013.2 0.0
05/12:00pm 30.5 27.5 15.8 41 9.1 WSW 26 33 14 18 1013.5 1013.4 0.0
05/11:30am 32.6 31.6 14.7 34 11.0 S 13 22 7 12 1013.7 1013.6 0.0
05/11:00am 31.5 30.2 11.3 29 11.7 SW 9 19 5 10 1014.1 1014.0 0.0
05/10:30am 30.5 28.6 11.9 31 10.9 SSW 13 20 7 11 1014.4 1014.3 0.0
05/10:00am 28.8 27.3 11.8 35 9.8 S 11 19 6 10 1014.7 1014.6 0.0
05/09:30am 27.4 26.6 11.8 38 9.0 SSW 7 13 4 7 1015.0 1014.9 0.0
05/09:00am 26.6 25.5 13.0 43 8.0 ESE 11 15 6 8 1015.0 1014.9 0.0
05/08:30am 25.3 23.5 12.2 44 7.5 ESE 13 19 7 10 1015.3 1015.2 0.0
05/08:00am 23.6 20.6 12.0 48 6.6 ESE 19 22 10 12 1015.4 1015.3 0.0
05/07:30am 22.3 19.0 11.7 51 5.9 ESE 20 26 11 14 1015.5 1015.4 0.0
05/07:00am 21.1 17.3 11.2 53 5.5 ESE 22 28 12 15 1015.3 1015.2 0.0
05/06:30am 20.2 16.4 11.1 56 5.0 ESE 22 26 12 14 1015.5 1015.4 0.0
05/06:00am 19.4 16.0 10.7 57 4.7 ESE 19 26 10 14 1015.5 1015.4 0.0
05/05:30am 18.6 15.0 10.7 60 4.3 ESE 20 26 11 14 1015.3 1015.2 0.0

Other formats

Comma delimited format used in spreadsheet applications
http://www.bom.gov.au/fwo/IDW60801/IDW60801.94609.axf

JavaScript Object Notation format (JSON) in row-major order
http://www.bom.gov.au/fwo/IDW60801/IDW60801.94609.json

Data quality

Most of these data are generated automatically and are frequently updated. Quality checks on data are not normally performed. It is possible for incorrect values to appear. Refer to information at About Latest Weather Observations and please check the disclaimer before using these data.